Data for 03/11/2016

Time Sea-Level Adjusted Pressure Absolute Pressure Temperature Relative Humidity Dew Point   
(mb) (inHg) (mb) (inHg) (C) (F) (%) (C) (F)
00:05 1015 29.97 844 24.92 11.2 52.2 40 -2 28.4
00:10 1015 29.97 844 24.92 11.2 52.1 40 -1.8 28.8
00:15 1015 29.97 844 24.92 11 51.8 44 -0.8 30.5
00:20 1015 29.97 844 24.92 10.6 51 47 -0.1 31.8
00:25 1015 29.97 844 24.92 10.1 50.3 49 0 32
00:30 1015 29.97 844 24.92 10.1 50.1 44 -1.5 29.4
00:35 1015 29.97 844 24.92 10.6 51 43 -1.5 29.3
00:40 1015 29.97 844 24.92 10.6 51 44 -1.1 30.1
00:45 1015 29.97 844 24.92 10.3 50.5 50 0.2 32.4
00:50 1015 29.97 844 24.92 10 50 46 -1.1 30.1
00:55 1015 29.97 844 24.92 10.4 50.6 45 -1.1 30
01:00 1015 29.97 844 24.92 10.4 50.7 44 -1.3 29.7
01:05 1015 29.97 844 24.92 10.2 50.4 43 -1.7 28.9
01:10 1015 29.97 844 24.92 10.2 50.4 43 -1.8 28.7
01:15 1015 29.97 845 24.95 10.1 50.3 42 -2 28.4
01:20 1015 29.97 845 24.95 10.2 50.4 41 -2.3 27.9
01:25 1015 29.97 845 24.95 10.4 50.6 42 -1.9 28.5
01:30 1016 30 845 24.95 10.3 50.5 42 -2.1 28.2
01:35 1016 30 845 24.95 10.4 50.7 41 -2.1 28.2
01:40 1016 30 845 24.95 10.4 50.7 42 -2 28.4
01:45 1016 30 845 24.95 10.5 50.8 41 -2.2 28
01:50 1016 30 845 24.95 10.4 50.7 41 -2.1 28.1
01:55 1016 30 845 24.95 10.3 50.6 42 -2.1 28.2
02:00 1016 30 845 24.95 10.3 50.5 43 -1.7 29
02:05 1016 30 845 24.95 10 49.9 46 -1.1 30.1
02:10 1016 30 845 24.95 9.5 49.1 49 -0.7 30.7
02:15 1016 30 845 24.95 9.1 48.4 51 -0.5 31
02:20 1016 30 846 24.98 8.8 47.9 52 -0.4 31.3
02:25 1016 30 846 24.98 8.4 47 53 -0.7 30.8
02:30 1017 30.03 846 24.98 7.9 46.2 54 -0.8 30.5
02:35 1017 30.03 846 24.98 7.4 45.3 55 -1 30.3
02:40 1017 30.03 846 24.98 7 44.6 56 -1.1 30
02:45 1017 30.03 846 24.98 6.7 44 57 -1.2 29.9
02:50 1017 30.03 846 24.98 6.3 43.3 58 -1.3 29.7
02:55 1017 30.03 847 25.01 5.9 42.6 60 -1.4 29.6
03:00 1017 30.03 847 25.01 5.5 42 61 -1.4 29.4
03:05 1017 30.03 847 25.01 5.1 41.2 62 -1.5 29.3
03:10 1018 30.06 847 25.01 4.8 40.6 65 -1.3 29.6
03:15 1018 30.06 847 25.01 4.2 39.6 66 -1.5 29.4
03:20 1018 30.06 847 25.01 4 39.1 67 -1.6 29.2
03:25 1018 30.06 848 25.04 3.6 38.5 69 -1.6 29.1
03:30 1018 30.06 848 25.04 3.5 38.3 69 -1.7 28.9
03:35 1018 30.06 848 25.04 3.4 38.2 69 -1.8 28.8
03:40 1019 30.09 848 25.04 3.3 38 69 -1.9 28.6
03:45 1018 30.06 848 25.04 3.2 37.7 69 -2 28.3
03:50 1018 30.06 848 25.04 3.1 37.6 68 -2.1 28.2
03:55 1018 30.06 847 25.01 3.1 37.6 68 -2.2 28.1
04:00 1018 30.06 847 25.01 3.2 37.8 68 -2.2 28.1
04:05 1018 30.06 847 25.01 3.2 37.8 68 -2.1 28.1
04:10 1018 30.06 847 25.01 3.3 38 67 -2.2 28.1
04:15 1018 30.06 847 25.01 3.5 38.3 67 -2.1 28.2
04:20 1018 30.06 847 25.01 3.6 38.5 67 -1.9 28.5
04:25 1018 30.06 847 25.01 3.6 38.5 67 -2 28.4
04:30 1018 30.06 847 25.01 3.8 38.8 66 -1.9 28.6
04:35 1018 30.06 847 25.01 3.8 38.9 67 -1.8 28.8
04:40 1018 30.06 847 25.01 3.8 38.8 67 -1.7 29
04:45 1018 30.06 847 25.01 3.7 38.7 68 -1.7 29
04:50 1018 30.06 847 25.01 3.7 38.6 68 -1.8 28.8
04:55 1018 30.06 848 25.04 3.6 38.5 68 -1.8 28.8
05:00 1018 30.06 847 25.01 3.6 38.5 67 -1.8 28.7
05:05 1018 30.06 848 25.04 3.6 38.4 68 -1.7 28.9
05:10 1018 30.06 848 25.04 3.4 38 69 -1.7 28.9
05:15 1018 30.06 848 25.04 3.2 37.7 71 -1.6 29.1
05:20 1018 30.06 847 25.01 2.9 37.2 72 -1.6 29.1
05:25 1018 30.06 848 25.04 2.8 37 72 -1.8 28.7
05:30 1018 30.06 848 25.04 2.9 37.3 71 -1.9 28.7
05:35 1018 30.06 848 25.04 3 37.4 71 -1.8 28.8
05:40 1018 30.06 847 25.01 3 37.4 71 -1.8 28.8
05:45 1018 30.06 847 25.01 3.1 37.5 70 -1.8 28.8
05:50 1018 30.06 847 25.01 3.1 37.7 70 -1.8 28.8
05:55 1018 30.06 847 25.01 3.3 37.9 69 -1.8 28.7
06:00 1018 30.06 847 25.01 3.4 38.1 69 -1.7 28.9
06:05 1018 30.06 847 25.01 3.3 37.9 70 -1.7 29
06:10 1018 30.06 847 25.01 3.1 37.6 71 -1.7 28.9
06:15 1018 30.06 847 25.01 3.1 37.5 71 -1.7 28.9
06:20 1018 30.06 847 25.01 2.9 37.3 72 -1.7 29
06:25 1018 30.06 847 25.01 2.9 37.2 71 -1.8 28.8
06:30 1018 30.06 847 25.01 2.9 37.3 71 -1.8 28.8
06:35 1018 30.06 847 25.01 3 37.4 71 -1.8 28.8
06:40 1018 30.06 847 25.01 3 37.3 71 -1.9 28.6
06:45 1018 30.06 847 25.01 3 37.4 71 -1.9 28.7
06:50 1018 30.06 847 25.01 2.9 37.2 71 -1.9 28.6
06:55 1018 30.06 847 25.01 2.9 37.2 71 -1.9 28.6
07:00 1017 30.03 847 25.01 2.9 37.3 70 -2 28.5
07:05 1017 30.03 847 25.01 3 37.4 70 -2 28.5
07:10 1017 30.03 847 25.01 3.1 37.6 70 -1.9 28.5
07:15 1018 30.06 847 25.01 3.1 37.6 70 -1.9 28.6
07:20 1017 30.03 847 25.01 3.1 37.6 70 -1.8 28.7
07:25 1017 30.03 847 25.01 3.1 37.5 70 -1.9 28.7
07:30 1017 30.03 847 25.01 3.1 37.6 69 -1.9 28.5
07:35 1017 30.03 846 24.98 3.2 37.8 69 -1.9 28.6
07:40 1017 30.03 846 24.98 3.2 37.8 69 -1.9 28.6
07:45 1017 30.03 846 24.98 3.3 37.9 69 -1.9 28.6
07:50 1017 30.03 846 24.98 3.4 38.1 68 -1.9 28.5
07:55 1017 30.03 846 24.98 3.5 38.3 68 -1.9 28.6
08:00 1017 30.03 846 24.98 3.7 38.6 67 -1.9 28.6
08:05 1017 30.03 846 24.98 3.8 38.8 67 -1.8 28.7
08:10 1017 30.03 846 24.98 3.9 39.1 66 -1.8 28.8
08:15 1017 30.03 846 24.98 4.1 39.3 66 -1.7 28.9
08:20 1017 30.03 846 24.98 4.1 39.4 66 -1.7 29
08:25 1017 30.03 846 24.98 4.1 39.3 66 -1.6 29.1
08:30 1017 30.03 846 24.98 4.1 39.4 66 -1.6 29.1
08:35 1017 30.03 846 24.98 4 39.1 67 -1.5 29.3
08:40 1017 30.03 846 24.98 3.9 38.9 68 -1.5 29.2
08:45 1017 30.03 846 24.98 3.9 38.9 68 -1.6 29.2
08:50 1017 30.03 846 24.98 4 39.1 67 -1.6 29.1
08:55 1017 30.03 846 24.98 4.1 39.3 67 -1.5 29.3
09:00 1017 30.03 846 24.98 4.1 39.4 68 -1.3 29.7
09:05 1017 30.03 847 25.01 3.9 39 68 -1.4 29.5
09:10 1018 30.06 847 25.01 3.6 38.5 70 -1.4 29.5
09:15 1017 30.03 847 25.01 3.2 37.8 72 -1.4 29.5
09:20 1017 30.03 847 25.01 3.1 37.5 72 -1.5 29.2
09:25 1017 30.03 847 25.01 3.2 37.8 71 -1.5 29.4
09:30 1017 30.03 847 25.01 3.3 37.9 71 -1.4 29.4
09:35 1017 30.03 847 25.01 3.1 37.6 73 -1.3 29.6
09:40 1017 30.03 847 25.01 3 37.4 72 -1.5 29.4
09:45 1017 30.03 847 25.01 3.3 37.9 71 -1.4 29.5
09:50 1017 30.03 847 25.01 3.4 38.2 71 -1.3 29.6
09:55 1017 30.03 847 25.01 3.4 38.2 71 -1.3 29.7
10:00 1017 30.03 846 24.98 3.5 38.4 70 -1.3 29.6
10:05 1017 30.03 846 24.98 3.6 38.5 70 -1.4 29.4
10:10 1017 30.03 846 24.98 4 39.1 68 -1.4 29.5
10:15 1017 30.03 846 24.98 4.2 39.5 67 -1.5 29.4
10:20 1017 30.03 846 24.98 4.5 40.1 65 -1.4 29.4
10:25 1017 30.03 846 24.98 4.4 40 66 -1.3 29.6
10:30 1017 30.03 847 25.01 4.5 40.2 66 -1.2 29.8
10:35 1017 30.03 847 25.01 4.3 39.8 68 -1.1 30
10:40 1017 30.03 846 24.98 4.4 39.9 66 -1.4 29.5
10:45 1017 30.03 846 24.98 4.9 40.9 65 -1.1 29.9
10:50 1017 30.03 846 24.98 5.1 41.2 64 -1.2 29.8
10:55 1017 30.03 846 24.98 5.1 41.2 64 -1.1 30
11:00 1017 30.03 846 24.98 5 41.1 65 -0.9 30.4
11:05 1017 30.03 846 24.98 5.1 41.1 65 -1 30.2
11:10 1017 30.03 846 24.98 5.2 41.3 64 -1 30.2
11:15 1017 30.03 846 24.98 5.2 41.3 64 -1 30.1
11:20 1017 30.03 846 24.98 5 41 65 -1 30.2
11:25 1017 30.03 846 24.98 5.1 41.2 64 -1.2 29.9
11:30 1017 30.03 846 24.98 5.2 41.3 63 -1.3 29.7
11:35 1017 30.03 846 24.98 5.4 41.7 63 -1.1 30
11:40 1017 30.03 846 24.98 5.4 41.8 62 -1.2 29.8
11:45 1016 30 846 24.98 5.5 41.8 62 -1.3 29.7
11:50 1016 30 846 24.98 5.7 42.2 60 -1.6 29.2
11:55 1016 30 845 24.95 6.5 43.8 58 -1.2 29.8
12:00 1016 30 845 24.95 7.5 45.6 54 -1.1 29.9
12:05 1016 30 845 24.95 7.9 46.1 53 -1.1 30
12:10 1016 30 845 24.95 8 46.4 53 -1 30.1
12:15 1016 30 845 24.95 8.3 46.9 52 -0.9 30.3
12:20 1016 30 845 24.95 8.6 47.5 51 -1 30.1
12:25 1016 30 845 24.95 8.6 47.5 51 -0.9 30.4
12:30 1016 30 845 24.95 8.8 47.9 50 -1.1 30.1
12:35 1016 30 845 24.95 9.3 48.7 48 -1.1 30.1
12:40 1016 30 845 24.95 9.8 49.7 47 -0.8 30.5
12:45 1016 30 845 24.95 10 49.9 47 -0.8 30.6
12:50 1015 29.97 845 24.95 9.7 49.5 49 -0.3 31.5
12:55 1015 29.97 845 24.95 9 48.2 49 -1.1 30
13:00 1015 29.97 845 24.95 10.3 50.5 45 -1.1 30
13:05 1015 29.97 845 24.95 11.1 52.1 43 -1 30.2
13:10 1015 29.97 844 24.92 11.1 52 43 -0.8 30.5
13:15 1015 29.97 844 24.92 11.2 52.1 44 -0.5 31.2
13:20 1015 29.97 844 24.92 10.6 51.2 44 -1 30.1
13:25 1015 29.97 844 24.92 10.8 51.5 44 -0.9 30.5
13:30 1015 29.97 844 24.92 10.7 51.2 44 -0.9 30.3
13:35 1015 29.97 844 24.92 10.8 51.4 44 -0.9 30.4
13:40 1015 29.97 844 24.92 10.8 51.4 45 -0.5 31.1
13:45 1015 29.97 844 24.92 10.7 51.2 45 -0.7 30.8
13:50 1015 29.97 844 24.92 10.6 51 45 -0.8 30.6
13:55 1015 29.97 844 24.92 10.5 50.8 46 -0.7 30.7
14:00 1015 29.97 844 24.92 10 50 47 -0.8 30.6
14:05 1015 29.97 844 24.92 9.8 49.6 48 -0.6 30.9
14:10 1015 29.97 844 24.92 9.7 49.5 48 -0.8 30.6
14:15 1015 29.97 844 24.92 10 50 47 -0.6 30.9
14:20 1014 29.94 844 24.92 10.1 50.1 48 -0.4 31.3
14:25 1014 29.94 843 24.89 9.9 49.7 48 -0.5 31.1
14:30 1014 29.94 843 24.89 9.7 49.4 48 -0.7 30.8
14:35 1014 29.94 843 24.89 9.7 49.5 48 -0.6 30.9
14:40 1014 29.94 843 24.89 9.9 49.8 47 -0.8 30.5
14:45 1014 29.94 843 24.89 9.8 49.6 49 -0.4 31.3
14:50 1014 29.94 843 24.89 9.4 48.9 49 -0.7 30.7
14:55 1014 29.94 843 24.89 9.4 48.9 49 -0.7 30.8
15:00 1014 29.94 843 24.89 9.6 49.3 49 -0.5 31.1
15:05 1014 29.94 843 24.89 9.4 49 49 -0.6 30.9
15:10 1013 29.91 843 24.89 9.4 48.9 51 -0.2 31.6
15:15 1013 29.91 843 24.89 9.3 48.8 52 0 32.1
15:20 1013 29.91 843 24.89 9.2 48.6 53 0.1 32.2
15:25 1013 29.91 843 24.89 9.1 48.3 53 0.1 32.2
15:30 1013 29.91 842 24.86 9 48.2 53 0 32.1
15:35 1013 29.91 842 24.86 9.1 48.3 53 -0 32
15:40 1013 29.91 842 24.86 8.9 48 54 0 32.1
15:45 1013 29.91 842 24.86 8.9 48.1 53 -0 32
15:50 1013 29.91 842 24.86 9.1 48.4 53 0 32.1
15:55 1013 29.91 842 24.86 9.4 49 52 -0 32
16:00 1013 29.91 842 24.86 9.4 49 52 0.2 32.3
16:05 1013 29.91 842 24.86 9.5 49.1 52 0.1 32.2
16:10 1013 29.91 842 24.86 9.7 49.4 51 0.1 32.2
16:15 1013 29.91 842 24.86 9.5 49.2 53 0.3 32.6
16:20 1013 29.91 842 24.86 9.5 49 52 0.1 32.1
16:25 1013 29.91 842 24.86 9.5 49.1 52 0.2 32.3
16:30 1013 29.91 842 24.86 9.5 49 52 0.1 32.2
16:35 1013 29.91 842 24.86 9.5 49 52 0 32.1
16:40 1013 29.91 842 24.86 9.7 49.5 51 0.1 32.2
16:45 1012 29.88 842 24.86 9.7 49.5 51 0.1 32.2
16:50 1013 29.91 842 24.86 9.8 49.7 50 0.1 32.1
16:55 1013 29.91 842 24.86 9.9 49.8 51 0.3 32.5
17:00 1013 29.91 842 24.86 9.9 49.7 51 0.3 32.5
17:05 1012 29.88 842 24.86 9.8 49.7 51 0.1 32.1
17:10 1012 29.88 841 24.83 10 50 50 0.2 32.4
17:15 1012 29.88 841 24.83 10.1 50.2 50 0.2 32.4
17:20 1012 29.88 842 24.86 10.1 50.1 50 0.3 32.5
17:25 1012 29.88 841 24.83 9.9 49.8 51 0.3 32.5
17:30 1012 29.88 841 24.83 9.9 49.9 50 0.2 32.3
17:35 1012 29.88 841 24.83 9.9 49.8 51 0.3 32.5
17:40 1012 29.88 841 24.83 9.8 49.6 51 0.1 32.2
17:45 1012 29.88 841 24.83 9.7 49.4 51 0.2 32.3
17:50 1012 29.88 841 24.83 9.5 49.1 52 0.2 32.4
17:55 1012 29.88 841 24.83 9.5 49 52 0.2 32.3
18:00 1012 29.88 841 24.83 9.3 48.8 52 0.1 32.2
18:05 1012 29.88 841 24.83 9.3 48.8 53 0.2 32.3
18:10 1012 29.88 841 24.83 9.3 48.7 52 0.1 32.2
18:15 1011 29.85 841 24.83 9.3 48.8 52 0 32.1
18:20 1011 29.85 841 24.83 9.3 48.7 52 0.1 32.2
18:25 1011 29.85 841 24.83 9.2 48.6 52 0 32
18:30 1011 29.85 841 24.83 9.2 48.6 52 0 32
18:35 1011 29.85 841 24.83 9.2 48.5 53 0 32.1
18:40 1011 29.85 840 24.81 9 48.3 53 -0.1 31.9
18:45 1011 29.85 840 24.81 9 48.2 53 0.1 32.1
18:50 1011 29.85 840 24.81 8.9 48.1 53 -0 32
18:55 1011 29.85 840 24.81 8.9 48 53 -0.1 31.9
19:00 1011 29.85 840 24.81 8.8 47.9 54 0 32
19:05 1011 29.85 840 24.81 8.7 47.7 54 -0.1 31.8
19:10 1011 29.85 840 24.81 8.7 47.6 54 -0.2 31.6
19:15 1011 29.85 840 24.81 8.6 47.4 54 -0.1 31.8
19:20 1011 29.85 841 24.83 8.4 47.2 55 -0.2 31.7
19:25 1011 29.85 840 24.81 8.4 47 55 -0.2 31.6
19:30 1011 29.85 840 24.81 8.3 46.9 55 -0.2 31.7
19:35 1011 29.85 840 24.81 8.2 46.8 55 -0.3 31.4
19:40 1011 29.85 840 24.81 8.3 46.9 54 -0.5 31.1
19:45 1011 29.85 840 24.81 8.3 46.9 54 -0.4 31.3
19:50 1011 29.85 840 24.81 8.2 46.8 54 -0.4 31.2
19:55 1011 29.85 840 24.81 8.2 46.7 55 -0.4 31.3
20:00 1011 29.85 840 24.81 8.1 46.7 55 -0.4 31.2
20:05 1011 29.85 840 24.81 8.1 46.6 54 -0.6 30.9
20:10 1011 29.85 840 24.81 8.2 46.7 54 -0.5 31.1
20:15 1011 29.85 840 24.81 8.2 46.8 54 -0.6 30.9
20:20 1011 29.85 840 24.81 8.2 46.8 53 -0.7 30.7
20:25 1011 29.85 840 24.81 8.2 46.8 53 -0.7 30.8
20:30 1011 29.85 840 24.81 8.2 46.7 54 -0.7 30.8
20:35 1011 29.85 840 24.81 8 46.4 54 -0.6 30.9
20:40 1011 29.85 840 24.81 7.9 46.3 54 -0.8 30.6
20:45 1011 29.85 840 24.81 7.9 46.3 54 -0.9 30.4
20:50 1011 29.85 840 24.81 8 46.3 53 -0.9 30.3
20:55 1011 29.85 840 24.81 7.9 46.3 53 -1 30.2
21:00 1011 29.85 840 24.81 8 46.3 53 -1 30.2
21:05 1011 29.85 840 24.81 7.9 46.2 53 -1.1 30
21:10 1011 29.85 840 24.81 7.9 46.3 53 -1.1 30
21:15 1011 29.85 840 24.81 7.9 46.2 53 -1.1 29.9
21:20 1011 29.85 840 24.81 7.9 46.1 53 -1.1 29.9
21:25 1011 29.85 840 24.81 7.8 46 53 -1.1 30
21:30 1010 29.83 840 24.81 7.7 45.8 53 -1.1 29.9
21:35 1010 29.83 840 24.81 7.7 45.8 54 -1.1 30
21:40 1010 29.83 840 24.81 7.6 45.7 54 -1.1 30
21:45 1010 29.83 840 24.81 7.6 45.7 54 -1.2 29.9
21:50 1010 29.83 840 24.81 7.7 45.9 53 -1.3 29.7
21:55 1010 29.83 839 24.78 7.9 46.2 52 -1.3 29.6
22:00 1010 29.83 839 24.78 7.9 46.3 52 -1.2 29.8
22:05 1010 29.83 839 24.78 7.9 46.1 52 -1.3 29.6
22:10 1010 29.83 839 24.78 7.9 46.1 52 -1.4 29.6
22:15 1010 29.83 839 24.78 7.9 46.3 52 -1.4 29.4
22:20 1010 29.83 839 24.78 7.9 46.3 52 -1.4 29.5
22:25 1010 29.83 839 24.78 7.8 46 53 -1.3 29.7
22:30 1010 29.83 839 24.78 7.6 45.8 53 -1.4 29.4
22:35 1010 29.83 839 24.78 7.8 46.1 52 -1.4 29.4
22:40 1010 29.83 839 24.78 7.8 46.1 52 -1.3 29.6
22:45 1010 29.83 839 24.78 7.7 45.9 53 -1.3 29.6
22:50 1010 29.83 839 24.78 7.7 45.8 53 -1.3 29.7
22:55 1010 29.83 839 24.78 7.6 45.8 52 -1.5 29.4
23:00 1010 29.83 839 24.78 7.7 45.9 52 -1.4 29.5
23:05 1010 29.83 839 24.78 7.7 45.8 52 -1.4 29.4
23:10 1010 29.83 839 24.78 7.8 46 52 -1.4 29.4
23:15 1010 29.83 839 24.78 7.7 45.9 52 -1.4 29.5
23:20 1010 29.83 839 24.78 7.7 45.8 52 -1.5 29.4
23:25 1010 29.83 839 24.78 7.6 45.8 52 -1.5 29.3
23:30 1010 29.83 839 24.78 7.7 45.8 52 -1.5 29.3
23:35 1010 29.83 839 24.78 7.6 45.7 52 -1.7 28.9
23:40 1010 29.83 839 24.78 7.6 45.6 52 -1.7 29
23:45 1010 29.83 839 24.78 7.5 45.5 51 -1.9 28.7
23:50 1010 29.83 839 24.78 7.5 45.4 52 -1.9 28.7
23:55 1010 29.83 839 24.78 7.4 45.3 51 -2 28.4
24:00 1010 29.83 839 24.78 7.4 45.2 51 -2 28.4